createdAt,value
2022-09-14T00:01:26.238Z,24.53
2022-09-14T00:06:31.383Z,24.52
2022-09-14T00:11:38.604Z,24.53
2022-09-14T00:16:47.938Z,24.49
2022-09-14T00:21:59.320Z,24.51
2022-09-14T00:27:02.811Z,24.52
2022-09-14T00:32:06.819Z,24.54
2022-09-14T00:37:12.744Z,24.55
2022-09-14T00:42:17.979Z,24.56
2022-09-14T00:47:21.947Z,24.56
2022-09-14T00:52:29.863Z,24.59
2022-09-14T00:57:44.300Z,24.63
2022-09-14T01:02:47.678Z,24.65
2022-09-14T01:08:05.863Z,24.70
2022-09-14T01:13:37.534Z,24.72
2022-09-14T01:18:48.108Z,24.69
2022-09-14T01:24:06.640Z,24.73
2022-09-14T01:29:34.157Z,24.72
2022-09-14T01:35:03.478Z,24.73
2022-09-14T01:40:18.453Z,24.72
2022-09-14T01:45:24.395Z,24.73
2022-09-14T01:50:32.895Z,24.74
2022-09-14T01:55:46.315Z,24.75
2022-09-14T02:00:51.208Z,24.75
2022-09-14T02:06:41.163Z,24.72
2022-09-14T02:11:45.275Z,24.69
2022-09-14T02:16:48.895Z,24.72
2022-09-14T02:21:53.093Z,24.73
2022-09-14T02:26:57.634Z,24.73
2022-09-14T02:32:12.875Z,24.74
2022-09-14T02:37:48.637Z,24.72
2022-09-14T02:43:15.380Z,24.69
2022-09-14T02:48:44.249Z,24.68
2022-09-14T02:53:54.086Z,24.65
2022-09-14T02:58:57.912Z,24.61
2022-09-14T03:04:02.253Z,24.60
2022-09-14T03:09:05.662Z,24.60
2022-09-14T03:14:11.117Z,24.55
2022-09-14T03:19:14.775Z,24.52
2022-09-14T03:24:17.941Z,24.44
2022-09-14T03:29:21.419Z,24.42
2022-09-14T03:34:25.980Z,24.38
2022-09-14T03:39:30.429Z,24.35
2022-09-14T03:44:38.854Z,24.39
2022-09-14T03:49:45.672Z,24.44
2022-09-14T03:54:48.802Z,24.43
2022-09-14T03:59:52.167Z,24.43
2022-09-14T04:04:55.676Z,24.46
2022-09-14T04:09:59.052Z,24.48
2022-09-14T04:15:02.330Z,24.48
2022-09-14T04:20:06.873Z,24.49
2022-09-14T04:25:10.312Z,24.59
2022-09-14T04:30:14.325Z,24.75
2022-09-14T04:35:17.892Z,24.80
2022-09-14T04:40:21.421Z,24.79
2022-09-14T04:45:25.121Z,24.93
2022-09-14T04:50:28.614Z,24.91
2022-09-14T04:55:38.633Z,25.00
2022-09-14T05:00:42.011Z,25.11
2022-09-14T05:05:45.584Z,25.91
2022-09-14T05:10:49.602Z,25.88
2022-09-14T05:15:53.118Z,25.77
2022-09-14T05:21:03.062Z,26.05
2022-09-14T05:26:08.535Z,26.09
2022-09-14T05:31:13.462Z,26.00
2022-09-14T05:36:17.467Z,25.97
2022-09-14T05:41:20.784Z,25.99
2022-09-14T05:46:24.048Z,26.08
2022-09-14T05:51:29.092Z,26.18
2022-09-14T05:56:32.587Z,26.20
2022-09-14T06:01:36.027Z,26.28
2022-09-14T06:06:39.484Z,26.50
2022-09-14T06:11:43.225Z,26.69
2022-09-14T06:16:46.588Z,26.86
2022-09-14T06:21:51.507Z,26.84
2022-09-14T06:26:57.719Z,26.77
2022-09-14T06:32:04.785Z,26.83
2022-09-14T06:37:08.284Z,26.94
2022-09-14T06:42:11.837Z,27.02
2022-09-14T06:47:15.841Z,26.88
2022-09-14T06:52:19.246Z,26.81
2022-09-14T06:57:22.439Z,26.86
2022-09-14T07:02:25.975Z,26.97
2022-09-14T07:07:29.325Z,27.02
2022-09-14T07:12:34.180Z,27.01
2022-09-14T07:17:46.968Z,26.98
2022-09-14T07:22:50.661Z,27.02
2022-09-14T07:27:54.588Z,27.10
2022-09-14T07:32:58.019Z,27.15
2022-09-14T07:38:01.280Z,27.24
2022-09-14T07:43:04.705Z,27.22
2022-09-14T07:48:07.829Z,27.38
2022-09-14T07:53:10.971Z,27.68
2022-09-14T07:58:14.342Z,27.86
2022-09-14T08:03:21.799Z,28.06
2022-09-14T08:08:34.761Z,28.31
2022-09-14T08:13:43.833Z,28.41
2022-09-14T08:18:48.250Z,28.69
2022-09-14T08:23:52.192Z,28.83
2022-09-14T08:28:56.494Z,28.94
2022-09-14T08:34:02.517Z,28.89
2022-09-14T08:39:08.051Z,28.86
2022-09-14T08:44:20.511Z,28.89
2022-09-14T08:49:31.607Z,28.84
2022-09-14T08:54:37.779Z,28.65
2022-09-14T09:00:05.601Z,28.52
2022-09-14T09:05:25.538Z,28.52
2022-09-14T09:10:30.119Z,28.58
2022-09-14T09:15:50.316Z,28.71
2022-09-14T09:21:04.638Z,28.90
2022-09-14T09:26:18.005Z,28.83
2022-09-14T09:31:33.434Z,28.69
2022-09-14T09:36:57.737Z,28.45
2022-09-14T09:42:08.616Z,28.41
2022-09-14T09:47:12.648Z,28.30
2022-09-14T09:52:17.446Z,28.32
2022-09-14T09:57:34.641Z,28.36
2022-09-14T10:02:41.684Z,28.26
2022-09-14T10:07:50.382Z,28.24
2022-09-14T10:12:57.129Z,28.31
2022-09-14T10:18:12.595Z,28.28
2022-09-14T10:23:18.848Z,28.31
2022-09-14T10:28:26.785Z,28.26
2022-09-14T10:33:31.213Z,28.28
2022-09-14T10:39:01.835Z,28.40
2022-09-14T10:44:29.224Z,28.33
2022-09-14T10:49:32.577Z,28.44
2022-09-14T10:54:44.429Z,28.41
2022-09-14T10:59:50.755Z,28.32
2022-09-14T11:05:10.420Z,28.22
2022-09-14T11:10:45.143Z,28.13
2022-09-14T11:16:13.477Z,28.10
2022-09-14T11:21:29.612Z,28.08
2022-09-14T11:26:57.254Z,28.13
2022-09-14T11:32:23.386Z,28.14
2022-09-14T11:37:40.142Z,28.13
2022-09-14T11:43:06.603Z,28.16
2022-09-14T11:48:42.440Z,28.28
2022-09-14T11:53:47.412Z,28.31
2022-09-14T11:58:52.390Z,28.33
2022-09-14T12:03:58.787Z,28.44
2022-09-14T12:09:18.370Z,28.37
2022-09-14T12:14:25.039Z,28.32
2022-09-14T12:19:28.455Z,28.33
2022-09-14T12:24:31.772Z,28.29
2022-09-14T12:29:35.662Z,28.13
2022-09-14T12:34:39.557Z,27.83
2022-09-14T12:40:32.194Z,27.68
2022-09-14T12:45:48.434Z,27.52
2022-09-14T12:50:53.315Z,27.55
2022-09-14T12:56:02.889Z,27.48
2022-09-14T13:01:39.206Z,27.69
2022-09-14T13:06:48.640Z,27.66
2022-09-14T13:12:08.278Z,27.69
2022-09-14T13:17:14.657Z,27.75
2022-09-14T13:22:24.344Z,27.65
2022-09-14T13:27:32.436Z,27.54
2022-09-14T13:32:41.378Z,27.49
2022-09-14T13:37:48.279Z,27.46
2022-09-14T13:42:53.099Z,27.28
2022-09-14T13:47:58.192Z,27.19
2022-09-14T13:53:04.764Z,27.34
2022-09-14T13:58:23.554Z,27.29
2022-09-14T14:03:47.615Z,27.27
2022-09-14T14:09:02.310Z,27.33
2022-09-14T14:14:19.908Z,27.34
2022-09-14T14:19:29.923Z,27.24
2022-09-14T14:24:33.032Z,27.07
2022-09-14T14:29:36.460Z,26.90
2022-09-14T14:34:40.159Z,26.86
2022-09-14T14:39:49.398Z,26.85
2022-09-14T14:44:52.938Z,26.74
2022-09-14T14:49:56.163Z,26.61
2022-09-14T14:55:01.155Z,26.52
2022-09-14T15:00:12.592Z,26.48
2022-09-14T15:05:16.467Z,26.40
2022-09-14T15:10:21.610Z,26.31
2022-09-14T15:15:26.566Z,26.24
2022-09-14T15:20:30.079Z,26.11
2022-09-14T15:25:35.014Z,25.93
2022-09-14T15:30:40.993Z,25.79
2022-09-14T15:35:44.353Z,25.68
2022-09-14T15:40:47.803Z,25.62
2022-09-14T15:45:51.207Z,25.60
2022-09-14T15:50:58.084Z,25.61
2022-09-14T15:56:10.714Z,25.55
2022-09-14T16:01:16.353Z,25.54
2022-09-14T16:06:19.928Z,25.51
2022-09-14T16:11:23.704Z,25.44
2022-09-14T16:16:28.404Z,25.39
2022-09-14T16:21:32.638Z,25.37
2022-09-14T16:26:38.103Z,25.37
2022-09-14T16:31:44.502Z,25.36
2022-09-14T16:36:50.250Z,25.32
2022-09-14T16:41:54.282Z,25.26
2022-09-14T16:47:00.028Z,25.15
2022-09-14T16:52:06.487Z,25.15
2022-09-14T16:57:10.062Z,25.09
2022-09-14T17:02:13.918Z,25.00
2022-09-14T17:07:18.061Z,24.98
2022-09-14T17:12:21.645Z,24.96
2022-09-14T17:17:26.790Z,24.90
2022-09-14T17:22:30.715Z,24.85
2022-09-14T17:27:34.356Z,24.83
2022-09-14T17:32:37.759Z,24.77
2022-09-14T17:37:40.991Z,24.75
2022-09-14T17:42:44.296Z,24.68
2022-09-14T17:47:48.619Z,24.66
2022-09-14T17:52:52.200Z,24.62
2022-09-14T17:57:58.918Z,24.61
2022-09-14T18:03:07.932Z,24.61
2022-09-14T18:08:11.445Z,24.61
2022-09-14T18:13:14.905Z,24.61
2022-09-14T18:18:18.334Z,24.61
2022-09-14T18:23:21.758Z,24.63
2022-09-14T18:28:25.190Z,24.61
2022-09-14T18:33:29.374Z,24.59
2022-09-14T18:38:33.839Z,24.57
2022-09-14T18:43:37.854Z,24.55
2022-09-14T18:48:42.459Z,24.53
2022-09-14T18:53:59.736Z,24.49
2022-09-14T18:59:05.692Z,24.46
2022-09-14T19:04:11.666Z,24.42
2022-09-14T19:09:15.192Z,24.37
2022-09-14T19:14:18.825Z,24.36
2022-09-14T19:19:22.811Z,24.33
2022-09-14T19:24:26.116Z,24.28
2022-09-14T19:29:29.556Z,24.25
2022-09-14T19:34:33.660Z,24.22
2022-09-14T19:39:37.528Z,24.22
2022-09-14T19:44:41.002Z,24.19
2022-09-14T19:49:44.437Z,24.20
2022-09-14T19:54:50.925Z,24.24
2022-09-14T19:59:56.916Z,24.27
2022-09-14T20:05:00.320Z,24.25
2022-09-14T20:10:04.366Z,24.21
2022-09-14T20:15:08.484Z,24.16
2022-09-14T20:20:12.112Z,24.20
2022-09-14T20:25:15.655Z,24.19
2022-09-14T20:30:19.245Z,24.17
2022-09-14T20:35:23.167Z,24.09
2022-09-14T20:40:26.953Z,24.02
2022-09-14T20:45:30.299Z,23.97
2022-09-14T20:50:33.614Z,23.87
2022-09-14T20:55:36.867Z,23.80
2022-09-14T21:00:40.278Z,23.74
2022-09-14T21:05:43.594Z,23.68
2022-09-14T21:10:47.257Z,23.63
2022-09-14T21:15:50.754Z,23.60
2022-09-14T21:20:54.142Z,23.59
2022-09-14T21:25:57.550Z,23.57
2022-09-14T21:31:08.196Z,23.54
2022-09-14T21:36:13.057Z,23.49
2022-09-14T21:41:16.658Z,23.45
2022-09-14T21:46:20.188Z,23.41
2022-09-14T21:51:28.008Z,23.40
2022-09-14T21:56:33.575Z,23.38
2022-09-14T22:01:37.182Z,23.38
2022-09-14T22:06:40.580Z,23.41
2022-09-14T22:11:44.522Z,23.45
2022-09-14T22:16:49.132Z,23.46
2022-09-14T22:21:53.856Z,23.47
2022-09-14T22:26:57.515Z,23.48
2022-09-14T22:32:01.299Z,23.50
2022-09-14T22:37:04.759Z,23.51
2022-09-14T22:42:08.499Z,23.51
2022-09-14T22:47:11.678Z,23.52
2022-09-14T22:52:14.842Z,23.55
2022-09-14T22:57:18.098Z,23.58
2022-09-14T23:02:21.802Z,23.61
2022-09-14T23:07:25.299Z,23.62
2022-09-14T23:12:28.602Z,23.61
2022-09-14T23:17:32.252Z,23.66
2022-09-14T23:22:36.665Z,23.71
2022-09-14T23:27:40.068Z,23.77
2022-09-14T23:32:43.385Z,23.82
2022-09-14T23:37:47.004Z,23.82
2022-09-14T23:42:50.576Z,23.81
2022-09-14T23:47:54.233Z,23.81
2022-09-14T23:52:57.732Z,23.84
2022-09-14T23:58:01.039Z,23.87
